Amr R — XUAX5 — position and weather

sailwx.info

Track history (hours):
 
Tides and Currents Weather Stations Pressure Air Temp Water Temp Dewpoint Dewpoint Depression Visibility Wind Speed Wind Dir Waves Ship Positions

Amr R

Last reported at 2014-Oct-30 07:21 UTC. Time now 2014-Oct-31 10:50 UTC.
Position N 43°47' E 034°14'.

Length 130 m; draft 7.1 m.

Type: Cargo ship. MMSI: 514427000.

Date/timePositionNaut miles runAvg speedWind from/ knotsBaromVisibWave heightAir tempDewpointWater temp
2014-Oct-30 07:21N 43°47' E 034°14'7 9.2
2014-Oct-30 06:33N 43°50' E 034°23'9 9.2
2014-Oct-30 05:34N 43°56' E 034°33'9 9.3
2014-Oct-30 04:34N 44°01' E 034°44'10 9.6
2014-Oct-30 03:32N 44°06' E 034°55'10 9.9
2014-Oct-30 02:33N 44°11' E 035°07'1010.1
2014-Oct-30 01:33N 44°16' E 035°19'10 9.5
2014-Oct-30 00:32N 44°21' E 035°31'10 9.2
2014-Oct-29 23:29N 44°27' E 035°42'  
2014-Oct-21 23:33N 44°21' E 035°34'11 9.9
2014-Oct-21 22:27N 44°15' E 035°21'304 9.7
2014-Oct-20 15:04N 41°27' E 029°35'5 9.2
2014-Oct-20 14:33N 41°25' E 029°30'34 8.2
2014-Oct-20 10:25N 40°59' E 028°60'4 3.5
2014-Oct-20 09:21N 40°56' E 028°57'  
Track history (hours):
 
Tides and Currents Weather Stations Pressure Air Temp Water Temp Dewpoint Dewpoint Depression Visibility Wind Speed Wind Dir Waves Ship Positions

Amr R

Last reported at 2014-Oct-30 07:21 UTC. Time now 2014-Oct-31 10:50 UTC.
Position N 43°47' E 034°14'.

Length 130 m; draft 7.1 m.

Type: Cargo ship. MMSI: 514427000.

Date/timePositionNaut miles runAvg speedWind from/ knotsBaromVisibWave heightAir tempDewpointWater temp
2014-Oct-30 07:21N 43°47' E 034°14'7 9.2
2014-Oct-30 06:33N 43°50' E 034°23'9 9.2
2014-Oct-30 05:34N 43°56' E 034°33'9 9.3
2014-Oct-30 04:34N 44°01' E 034°44'10 9.6
2014-Oct-30 03:32N 44°06' E 034°55'10 9.9
2014-Oct-30 02:33N 44°11' E 035°07'1010.1
2014-Oct-30 01:33N 44°16' E 035°19'10 9.5
2014-Oct-30 00:32N 44°21' E 035°31'10 9.2
2014-Oct-29 23:29N 44°27' E 035°42'  
2014-Oct-21 23:33N 44°21' E 035°34'11 9.9
2014-Oct-21 22:27N 44°15' E 035°21'304 9.7
2014-Oct-20 15:04N 41°27' E 029°35'5 9.2
2014-Oct-20 14:33N 41°25' E 029°30'34 8.2
2014-Oct-20 10:25N 40°59' E 028°60'4 3.5
2014-Oct-20 09:21N 40°56' E 028°57'  

Dump ship's entire track history